createdAt,value
2023-01-18T00:01:06.249Z,98046.77
2023-01-18T00:03:35.915Z,98047.00
2023-01-18T00:06:07.254Z,98045.30
2023-01-18T00:08:36.858Z,98040.69
2023-01-18T00:11:10.973Z,98043.27
2023-01-18T00:13:39.296Z,98038.00
2023-01-18T00:16:18.398Z,98033.73
2023-01-18T00:19:02.163Z,98028.79
2023-01-18T00:21:29.782Z,98032.75
2023-01-18T00:23:57.749Z,98037.05
2023-01-18T00:26:25.434Z,98038.93
2023-01-18T00:28:56.203Z,98041.86
2023-01-18T00:31:24.020Z,98044.96
2023-01-18T00:33:51.836Z,98048.05
2023-01-18T00:36:19.608Z,98053.70
2023-01-18T00:38:51.991Z,98054.93
2023-01-18T00:41:21.608Z,98062.13
2023-01-18T00:43:50.273Z,98065.75
2023-01-18T00:46:23.721Z,98068.50
2023-01-18T00:48:52.557Z,98074.83
2023-01-18T00:51:22.883Z,98072.95
2023-01-18T00:53:51.047Z,98055.41
2023-01-18T00:56:21.712Z,98044.14
2023-01-18T00:58:49.558Z,98042.24
2023-01-18T01:01:17.806Z,98041.88
2023-01-18T01:04:01.523Z,98042.71
2023-01-18T01:06:49.186Z,98044.09
2023-01-18T01:09:24.427Z,98052.50
2023-01-18T01:12:09.091Z,98054.21
2023-01-18T01:14:56.732Z,98050.29
2023-01-18T01:17:40.345Z,98043.13
2023-01-18T01:20:26.043Z,98037.86
2023-01-18T01:23:09.753Z,98033.08
2023-01-18T01:25:53.805Z,98034.27
2023-01-18T01:28:21.565Z,98029.66
2023-01-18T01:30:49.331Z,98030.15
2023-01-18T01:33:18.420Z,98028.42
2023-01-18T01:35:46.088Z,98025.85
2023-01-18T01:38:13.687Z,98025.67
2023-01-18T01:40:41.380Z,98024.51
2023-01-18T01:43:13.538Z,98023.13
2023-01-18T01:45:41.579Z,98022.25
2023-01-18T01:48:10.825Z,98021.73
2023-01-18T01:50:40.177Z,98027.15
2023-01-18T01:53:10.313Z,98028.47
2023-01-18T01:55:40.292Z,98025.02
2023-01-18T01:58:17.384Z,98030.27
2023-01-18T02:00:46.055Z,98028.20
2023-01-18T02:03:20.179Z,98025.77
2023-01-18T02:05:54.771Z,98027.45
2023-01-18T02:08:24.908Z,98029.83
2023-01-18T02:10:53.137Z,98029.45
2023-01-18T02:13:22.375Z,98022.61
2023-01-18T02:16:21.970Z,98017.77
2023-01-18T02:19:05.938Z,98007.48
2023-01-18T02:21:39.654Z,98001.77
2023-01-18T02:24:39.339Z,98000.87
2023-01-18T02:27:25.062Z,98000.83
2023-01-18T02:29:52.650Z,98002.69
2023-01-18T02:32:28.988Z,98003.71
2023-01-18T02:35:17.199Z,98000.91
2023-01-18T02:37:59.946Z,97995.27
2023-01-18T02:40:34.231Z,98000.68
2023-01-18T02:43:20.529Z,97997.55
2023-01-18T02:46:06.271Z,97993.41
2023-01-18T02:48:38.399Z,97992.02
2023-01-18T02:51:07.090Z,97992.16
2023-01-18T02:53:40.073Z,97995.21
2023-01-18T02:56:42.615Z,97997.06
2023-01-18T02:59:16.873Z,98000.46
2023-01-18T03:01:51.210Z,97998.59
2023-01-18T03:04:31.196Z,97993.95
2023-01-18T03:07:11.464Z,97992.90
2023-01-18T03:09:42.531Z,97996.81
2023-01-18T03:12:45.904Z,97998.48
2023-01-18T03:15:26.378Z,98000.99
2023-01-18T03:18:00.862Z,98001.63
2023-01-18T03:20:36.022Z,97998.35
2023-01-18T03:23:27.815Z,97996.41
2023-01-18T03:25:57.625Z,97998.75
2023-01-18T03:28:48.128Z,97997.02
2023-01-18T03:31:43.119Z,97992.67
2023-01-18T03:34:35.699Z,97982.37
2023-01-18T03:37:09.656Z,97977.36
2023-01-18T03:40:08.290Z,97979.35
2023-01-18T03:43:07.830Z,97978.09
2023-01-18T03:46:00.206Z,97982.85
2023-01-18T03:48:28.107Z,97982.30
2023-01-18T03:51:15.632Z,97987.21
2023-01-18T03:54:04.687Z,97991.75
2023-01-18T03:56:54.468Z,97994.76
2023-01-18T03:59:23.340Z,97995.55
2023-01-18T04:01:51.085Z,97994.13
2023-01-18T04:04:18.802Z,97987.31
2023-01-18T04:06:46.467Z,97983.70
2023-01-18T04:09:14.176Z,97980.27
2023-01-18T04:11:41.870Z,97977.89
2023-01-18T04:14:09.720Z,97974.11
2023-01-18T04:16:37.391Z,97975.67
2023-01-18T04:19:06.052Z,97974.63
2023-01-18T04:21:33.671Z,97971.49
2023-01-18T04:24:01.431Z,97977.31
2023-01-18T04:26:29.972Z,97983.09
2023-01-18T04:28:57.643Z,97987.73
2023-01-18T04:31:25.464Z,97986.14
2023-01-18T04:33:53.189Z,97986.98
2023-01-18T04:36:22.226Z,97987.17
2023-01-18T04:38:54.339Z,97981.98
2023-01-18T04:41:23.166Z,97979.55
2023-01-18T04:43:50.856Z,97977.62
2023-01-18T04:46:18.539Z,97978.79
2023-01-18T04:48:50.671Z,97979.09
2023-01-18T04:51:19.556Z,97973.19
2023-01-18T04:53:47.941Z,97966.96
2023-01-18T04:56:17.067Z,97954.43
2023-01-18T04:58:45.447Z,97954.70
2023-01-18T05:01:14.315Z,97957.05
2023-01-18T05:03:42.213Z,97957.57
2023-01-18T05:06:12.324Z,97947.62
2023-01-18T05:08:41.124Z,97943.80
2023-01-18T05:11:15.115Z,97946.48
2023-01-18T05:13:44.108Z,97944.55
2023-01-18T05:16:17.518Z,97944.35
2023-01-18T05:18:45.695Z,97944.80
2023-01-18T05:21:14.153Z,97946.80
2023-01-18T05:23:42.216Z,97949.15
2023-01-18T05:26:17.404Z,97949.09
2023-01-18T05:28:45.909Z,97952.77
2023-01-18T05:31:15.516Z,97953.37
2023-01-18T05:33:43.260Z,97953.34
2023-01-18T05:36:11.679Z,97947.80
2023-01-18T05:38:39.419Z,97941.80
2023-01-18T05:41:07.127Z,97935.94
2023-01-18T05:43:35.783Z,97933.15
2023-01-18T05:46:04.646Z,97933.45
2023-01-18T05:48:32.499Z,97932.04
2023-01-18T05:51:00.150Z,97929.55
2023-01-18T05:53:27.818Z,97924.73
2023-01-18T05:56:00.564Z,97928.48
2023-01-18T05:58:29.196Z,97923.16
2023-01-18T06:00:58.438Z,97913.88
2023-01-18T06:03:26.380Z,97909.54
2023-01-18T06:05:54.063Z,97905.27
2023-01-18T06:08:21.799Z,97899.56
2023-01-18T06:10:57.368Z,97896.98
2023-01-18T06:13:29.120Z,97896.40
2023-01-18T06:15:58.617Z,97890.86
2023-01-18T06:18:30.052Z,97891.16
2023-01-18T06:21:01.359Z,97887.70
2023-01-18T06:23:30.393Z,97886.62
2023-01-18T06:25:58.841Z,97884.27
2023-01-18T06:28:29.038Z,97885.63
2023-01-18T06:30:58.279Z,97880.65
2023-01-18T06:33:25.990Z,97876.51
2023-01-18T06:35:54.091Z,97875.80
2023-01-18T06:38:21.968Z,97866.54
2023-01-18T06:40:49.654Z,97859.34
2023-01-18T06:43:17.372Z,97862.91
2023-01-18T06:45:52.440Z,97862.76
2023-01-18T06:48:22.088Z,97861.92
2023-01-18T06:50:52.550Z,97868.66
2023-01-18T06:53:20.590Z,97873.46
2023-01-18T06:56:04.685Z,97872.07
2023-01-18T06:58:33.419Z,97874.19
2023-01-18T07:01:01.409Z,97889.67
2023-01-18T07:03:30.814Z,97906.68
2023-01-18T07:06:00.687Z,97911.30
2023-01-18T07:08:33.019Z,97910.91
2023-01-18T07:11:06.695Z,97915.14
2023-01-18T07:13:35.359Z,97926.85
2023-01-18T07:16:03.219Z,97920.51
2023-01-18T07:18:31.334Z,97915.42
2023-01-18T07:21:07.222Z,97915.11
2023-01-18T07:23:38.173Z,97914.48
2023-01-18T07:26:17.574Z,97910.39
2023-01-18T07:28:46.546Z,97901.42
2023-01-18T07:31:15.784Z,97893.55
2023-01-18T07:33:44.521Z,97897.69
2023-01-18T07:36:14.043Z,97899.75
2023-01-18T07:38:42.542Z,97902.96
2023-01-18T07:41:14.302Z,97905.56
2023-01-18T07:43:44.792Z,97907.48
2023-01-18T07:46:21.207Z,97912.63
2023-01-18T07:48:49.504Z,97918.77
2023-01-18T07:51:17.456Z,97923.18
2023-01-18T07:53:45.864Z,97930.88
2023-01-18T07:56:15.948Z,97930.85
2023-01-18T07:58:44.952Z,97934.07
2023-01-18T08:01:15.794Z,97931.41
2023-01-18T08:03:45.419Z,97935.44
2023-01-18T08:06:13.811Z,97937.02
2023-01-18T08:08:41.885Z,97942.94
2023-01-18T08:11:10.629Z,97935.54
2023-01-18T08:13:39.332Z,97929.02
2023-01-18T08:16:09.406Z,97929.73
2023-01-18T08:18:37.135Z,97932.38
2023-01-18T08:21:05.039Z,97931.42
2023-01-18T08:23:32.892Z,97928.27
2023-01-18T08:26:02.438Z,97942.17
2023-01-18T08:28:31.022Z,97943.71
2023-01-18T08:31:11.616Z,97944.36
2023-01-18T08:33:41.500Z,97941.45
2023-01-18T08:36:11.461Z,97942.14
2023-01-18T08:38:39.934Z,97942.55
2023-01-18T08:41:07.910Z,97939.38
2023-01-18T08:43:36.020Z,97939.43
2023-01-18T08:46:04.013Z,97938.75
2023-01-18T08:48:31.815Z,97937.67
2023-01-18T08:51:03.396Z,97944.17
2023-01-18T08:53:31.864Z,97941.13
2023-01-18T08:56:03.378Z,97940.71
2023-01-18T08:58:32.481Z,97940.52
2023-01-18T09:01:07.475Z,97938.65
2023-01-18T09:03:35.819Z,97936.14
2023-01-18T09:06:06.081Z,97933.06
2023-01-18T09:08:34.235Z,97925.69
2023-01-18T09:11:03.388Z,97926.63
2023-01-18T09:13:32.352Z,97918.06
2023-01-18T09:16:02.047Z,97907.08
2023-01-18T09:18:30.305Z,97906.09
2023-01-18T09:20:58.623Z,97903.23
2023-01-18T09:23:26.394Z,97892.81
2023-01-18T09:26:16.900Z,97888.93
2023-01-18T09:28:47.322Z,97889.00
2023-01-18T09:31:17.259Z,97891.05
2023-01-18T09:33:52.734Z,97881.66
2023-01-18T09:36:26.673Z,97877.73
2023-01-18T09:38:55.902Z,97874.71
2023-01-18T09:41:42.716Z,97870.19
2023-01-18T09:44:13.449Z,97860.95
2023-01-18T09:46:43.044Z,97848.80
2023-01-18T09:49:19.794Z,97839.58
2023-01-18T09:52:01.556Z,97826.72
2023-01-18T09:54:36.409Z,97816.15
2023-01-18T09:57:46.706Z,97807.98
2023-01-18T10:00:25.413Z,97799.30
2023-01-18T10:03:01.563Z,97793.54
2023-01-18T10:05:33.842Z,97794.74
2023-01-18T10:08:16.533Z,97797.13
2023-01-18T10:10:51.690Z,97800.48
2023-01-18T10:13:57.279Z,97802.30
2023-01-18T10:16:26.261Z,97804.00
2023-01-18T10:18:57.299Z,97798.89
2023-01-18T10:21:32.938Z,97789.97
2023-01-18T10:24:19.108Z,97778.81
2023-01-18T10:26:49.413Z,97774.64
2023-01-18T10:29:34.194Z,97773.39
2023-01-18T10:32:10.996Z,97771.27
2023-01-18T10:34:44.468Z,97774.70
2023-01-18T10:37:40.201Z,97768.74
2023-01-18T10:40:12.465Z,97773.44
2023-01-18T10:42:48.138Z,97773.70
2023-01-18T10:45:22.909Z,97774.13
2023-01-18T10:47:52.654Z,97778.17
2023-01-18T10:50:32.812Z,97780.05
2023-01-18T10:53:21.112Z,97777.48
2023-01-18T10:55:59.455Z,97777.23
2023-01-18T10:58:32.450Z,97781.08
2023-01-18T11:01:02.215Z,97783.98
2023-01-18T11:03:36.481Z,97784.61
2023-01-18T11:06:06.834Z,97788.77
2023-01-18T11:08:36.141Z,97793.08
2023-01-18T11:11:17.039Z,97791.73
2023-01-18T11:13:44.936Z,97796.63
2023-01-18T11:16:16.112Z,97795.93
2023-01-18T11:19:05.133Z,97791.01
2023-01-18T11:21:48.568Z,97788.65
2023-01-18T11:24:27.383Z,97782.52
2023-01-18T11:27:05.666Z,97776.99
2023-01-18T11:29:39.655Z,97772.43
2023-01-18T11:32:24.018Z,97764.67
2023-01-18T11:34:55.201Z,97770.35
2023-01-18T11:37:35.017Z,97763.50
2023-01-18T11:40:18.754Z,97764.48
2023-01-18T11:42:48.976Z,97765.80
2023-01-18T11:45:26.896Z,97758.02
2023-01-18T11:48:11.680Z,97749.60
2023-01-18T11:50:54.188Z,97741.03
2023-01-18T11:53:54.437Z,97743.48
2023-01-18T11:56:39.539Z,97743.96
2023-01-18T11:59:23.674Z,97743.88
2023-01-18T12:02:25.636Z,97740.02
2023-01-18T12:04:53.668Z,97740.77
2023-01-18T12:07:47.760Z,97736.01
2023-01-18T12:10:25.963Z,97731.42
2023-01-18T12:13:26.680Z,97721.99
2023-01-18T12:16:13.590Z,97721.80
2023-01-18T12:19:03.173Z,97718.81
2023-01-18T12:21:58.189Z,97722.92
2023-01-18T12:24:57.796Z,97717.08
2023-01-18T12:27:48.962Z,97715.83
2023-01-18T12:30:49.121Z,97715.45
2023-01-18T12:33:38.253Z,97708.11
2023-01-18T12:36:27.310Z,97704.92
2023-01-18T12:38:57.003Z,97702.80
2023-01-18T12:41:39.703Z,97706.55
2023-01-18T12:44:39.327Z,97712.89
2023-01-18T12:47:45.019Z,97720.65
2023-01-18T12:50:15.744Z,97724.16
2023-01-18T12:52:50.043Z,97732.98
2023-01-18T12:55:21.954Z,97734.88
2023-01-18T12:57:55.839Z,97736.02
2023-01-18T13:00:38.435Z,97733.55
2023-01-18T13:03:17.506Z,97730.75
2023-01-18T13:06:12.965Z,97732.42
2023-01-18T13:08:49.922Z,97734.16
2023-01-18T13:11:35.888Z,97732.97
2023-01-18T13:14:18.438Z,97736.38
2023-01-18T13:16:49.381Z,97744.09
2023-01-18T13:20:00.455Z,97750.08
2023-01-18T13:22:35.192Z,97750.14
2023-01-18T13:25:02.849Z,97751.98
2023-01-18T13:27:34.820Z,97758.13
2023-01-18T13:30:16.728Z,97764.52
2023-01-18T13:32:47.423Z,97772.18
2023-01-18T13:35:31.600Z,97784.89
2023-01-18T13:38:13.037Z,97786.47
2023-01-18T13:41:04.823Z,97799.09
2023-01-18T13:43:35.431Z,97802.37
2023-01-18T13:46:26.703Z,97802.73
2023-01-18T13:49:01.580Z,97808.58
2023-01-18T13:51:49.563Z,97816.97
2023-01-18T13:54:21.498Z,97821.95
2023-01-18T13:57:09.407Z,97825.70
2023-01-18T13:59:40.655Z,97828.41
2023-01-18T14:02:20.509Z,97831.84
2023-01-18T14:05:00.515Z,97831.68
2023-01-18T14:07:28.652Z,97830.98
2023-01-18T14:10:03.349Z,97835.07
2023-01-18T14:12:46.933Z,97834.23
2023-01-18T14:15:26.295Z,97837.38
2023-01-18T14:17:58.949Z,97838.25
2023-01-18T14:20:49.480Z,97836.41
2023-01-18T14:23:28.948Z,97832.04
2023-01-18T14:26:13.995Z,97837.23
2023-01-18T14:29:25.154Z,97839.83
2023-01-18T14:31:56.629Z,97838.13
2023-01-18T14:34:25.437Z,97838.66
2023-01-18T14:36:53.124Z,97838.55
2023-01-18T14:39:21.557Z,97837.20
2023-01-18T14:41:55.107Z,97839.11
2023-01-18T14:44:26.317Z,97842.22
2023-01-18T14:46:57.487Z,97838.84
2023-01-18T14:49:35.186Z,97840.10
2023-01-18T14:52:06.624Z,97845.00
2023-01-18T14:54:35.486Z,97846.23
2023-01-18T14:57:08.892Z,97847.42
2023-01-18T14:59:37.777Z,97853.98
2023-01-18T15:02:25.885Z,97854.42
2023-01-18T15:05:14.959Z,97859.28
2023-01-18T15:07:46.114Z,97861.84
2023-01-18T15:10:18.572Z,97862.12
2023-01-18T15:12:51.192Z,97868.23
2023-01-18T15:15:27.972Z,97872.82
2023-01-18T15:18:04.455Z,97878.64
2023-01-18T15:20:34.007Z,97876.34
2023-01-18T15:23:02.172Z,97879.89
2023-01-18T15:25:34.341Z,97882.60
2023-01-18T15:28:18.444Z,97886.05
2023-01-18T15:30:56.011Z,97890.37
2023-01-18T15:33:27.177Z,97894.15
2023-01-18T15:35:58.656Z,97892.08
2023-01-18T15:38:26.763Z,97897.55
2023-01-18T15:40:59.089Z,97894.96
2023-01-18T15:43:26.694Z,97900.01
2023-01-18T15:45:57.042Z,97901.05
2023-01-18T15:48:27.177Z,97901.19
2023-01-18T15:51:06.411Z,97906.89
2023-01-18T15:53:37.933Z,97906.73
2023-01-18T15:56:09.067Z,97907.95
2023-01-18T15:58:41.513Z,97911.91
2023-01-18T16:01:19.488Z,97917.26
2023-01-18T16:03:47.379Z,97920.38
2023-01-18T16:06:32.157Z,97918.55
2023-01-18T16:09:19.226Z,97919.59
2023-01-18T16:11:54.178Z,97920.44
2023-01-18T16:14:28.273Z,97921.63
2023-01-18T16:17:04.634Z,97927.41
2023-01-18T16:19:37.100Z,97928.42
2023-01-18T16:22:22.200Z,97929.28
2023-01-18T16:25:05.712Z,97934.92
2023-01-18T16:27:34.513Z,97935.45
2023-01-18T16:30:08.177Z,97940.77
2023-01-18T16:32:36.378Z,97942.46
2023-01-18T16:35:13.559Z,97945.01
2023-01-18T16:37:44.259Z,97947.36
2023-01-18T16:40:17.627Z,97952.97
2023-01-18T16:43:06.973Z,97952.76
2023-01-18T16:45:37.093Z,97954.62
2023-01-18T16:48:06.289Z,97958.84
2023-01-18T16:50:34.068Z,97965.13
2023-01-18T16:53:01.740Z,97968.52
2023-01-18T16:55:29.367Z,97972.80
2023-01-18T16:57:57.464Z,97976.23
2023-01-18T17:00:30.678Z,97979.48
2023-01-18T17:02:58.432Z,97985.14
2023-01-18T17:05:27.557Z,97986.50
2023-01-18T17:07:55.564Z,97991.48
2023-01-18T17:10:36.276Z,97997.30
2023-01-18T17:13:04.041Z,98008.78
2023-01-18T17:15:34.463Z,98013.48
2023-01-18T17:18:03.979Z,98012.63
2023-01-18T17:20:31.834Z,98021.88
2023-01-18T17:23:01.096Z,98025.46
2023-01-18T17:25:29.298Z,98029.09
2023-01-18T17:27:57.910Z,98038.88
2023-01-18T17:30:25.734Z,98042.67
2023-01-18T17:32:53.484Z,98047.98
2023-01-18T17:35:23.414Z,98056.23
2023-01-18T17:38:00.700Z,98058.30
2023-01-18T17:40:40.027Z,98061.52
2023-01-18T17:43:15.230Z,98069.70
2023-01-18T17:45:59.618Z,98074.98
2023-01-18T17:48:29.263Z,98078.57
2023-01-18T17:50:57.075Z,98082.67
2023-01-18T17:53:25.812Z,98085.09
2023-01-18T17:55:53.457Z,98090.91
2023-01-18T17:58:21.100Z,98097.05
2023-01-18T18:00:48.865Z,98103.36
2023-01-18T18:03:17.385Z,98105.06
2023-01-18T18:05:45.191Z,98108.45
2023-01-18T18:08:12.853Z,98114.77
2023-01-18T18:10:43.562Z,98120.72
2023-01-18T18:13:11.206Z,98125.30
2023-01-18T18:15:38.925Z,98129.09
2023-01-18T18:18:12.293Z,98135.27
2023-01-18T18:20:55.618Z,98142.77
2023-01-18T18:23:23.331Z,98150.13
2023-01-18T18:25:50.976Z,98157.67
2023-01-18T18:28:18.914Z,98165.94
2023-01-18T18:30:51.424Z,98173.69
2023-01-18T18:33:19.932Z,98187.40
2023-01-18T18:35:48.299Z,98193.78
2023-01-18T18:38:18.759Z,98205.70
2023-01-18T18:40:46.430Z,98214.08
2023-01-18T18:43:14.047Z,98216.96
2023-01-18T18:45:43.766Z,98219.29
2023-01-18T18:48:13.051Z,98225.05
2023-01-18T18:50:41.020Z,98224.10
2023-01-18T18:53:08.814Z,98228.41
2023-01-18T18:55:36.483Z,98231.69
2023-01-18T18:58:04.150Z,98236.70
2023-01-18T19:00:31.979Z,98243.40
2023-01-18T19:03:05.971Z,98245.52
2023-01-18T19:05:35.477Z,98248.11
2023-01-18T19:08:04.082Z,98253.34
2023-01-18T19:10:31.844Z,98258.70
2023-01-18T19:13:00.228Z,98253.40
2023-01-18T19:15:28.144Z,98253.05
2023-01-18T19:17:57.973Z,98256.64
2023-01-18T19:20:25.713Z,98264.98
2023-01-18T19:22:53.354Z,98270.45
2023-01-18T19:25:21.477Z,98280.40
2023-01-18T19:27:49.125Z,98289.04
2023-01-18T19:30:20.100Z,98295.63
2023-01-18T19:32:50.727Z,98300.47
2023-01-18T19:35:20.245Z,98304.59
2023-01-18T19:37:48.734Z,98306.66
2023-01-18T19:40:16.884Z,98309.77
2023-01-18T19:42:47.131Z,98314.08
2023-01-18T19:45:26.884Z,98323.67
2023-01-18T19:47:57.618Z,98327.27
2023-01-18T19:50:27.636Z,98334.91
2023-01-18T19:52:55.865Z,98330.59
2023-01-18T19:55:25.038Z,98334.98
2023-01-18T19:57:55.641Z,98340.56
2023-01-18T20:00:23.526Z,98348.41
2023-01-18T20:02:51.374Z,98354.84
2023-01-18T20:05:20.176Z,98359.89
2023-01-18T20:07:48.065Z,98358.27
2023-01-18T20:10:20.058Z,98363.33
2023-01-18T20:12:48.922Z,98370.79
2023-01-18T20:15:18.540Z,98375.70
2023-01-18T20:17:46.202Z,98383.70
2023-01-18T20:20:20.932Z,98392.40
2023-01-18T20:22:55.138Z,98405.75
2023-01-18T20:25:22.799Z,98413.69
2023-01-18T20:27:50.473Z,98421.61
2023-01-18T20:30:18.118Z,98422.98
2023-01-18T20:32:45.755Z,98425.56
2023-01-18T20:35:13.829Z,98431.61
2023-01-18T20:37:41.478Z,98432.95
2023-01-18T20:40:10.116Z,98438.75
2023-01-18T20:42:38.035Z,98440.98
2023-01-18T20:45:06.954Z,98449.55
2023-01-18T20:47:34.920Z,98457.95
2023-01-18T20:50:03.575Z,98464.69
2023-01-18T20:52:31.519Z,98465.73
2023-01-18T20:54:59.165Z,98470.39
2023-01-18T20:57:30.208Z,98474.54
2023-01-18T20:59:58.210Z,98481.27
2023-01-18T21:02:25.878Z,98480.46
2023-01-18T21:04:53.633Z,98485.81
2023-01-18T21:07:21.315Z,98492.86
2023-01-18T21:09:48.991Z,98498.89
2023-01-18T21:12:16.864Z,98506.96
2023-01-18T21:14:44.795Z,98514.56
2023-01-18T21:17:12.979Z,98520.10
2023-01-18T21:19:48.685Z,98519.10
2023-01-18T21:22:16.382Z,98517.73
2023-01-18T21:24:44.033Z,98517.55
2023-01-18T21:27:12.330Z,98519.60
2023-01-18T21:29:39.952Z,98522.67
2023-01-18T21:32:07.679Z,98529.66
2023-01-18T21:34:35.475Z,98537.70
2023-01-18T21:37:03.098Z,98538.53
2023-01-18T21:39:30.760Z,98542.29
2023-01-18T21:42:14.339Z,98552.27
2023-01-18T21:44:57.960Z,98560.85
2023-01-18T21:47:25.855Z,98575.95
2023-01-18T21:50:17.519Z,98582.67
2023-01-18T21:53:01.623Z,98585.92
2023-01-18T21:55:29.333Z,98586.45
2023-01-18T21:58:13.034Z,98593.86
2023-01-18T22:00:40.915Z,98600.05
2023-01-18T22:03:09.750Z,98605.55
2023-01-18T22:05:39.857Z,98611.23
2023-01-18T22:08:09.823Z,98623.27
2023-01-18T22:10:37.503Z,98641.45
2023-01-18T22:13:05.204Z,98646.28
2023-01-18T22:15:32.830Z,98643.75
2023-01-18T22:18:01.011Z,98648.58
2023-01-18T22:20:30.901Z,98647.79
2023-01-18T22:22:59.250Z,98654.31
2023-01-18T22:25:26.867Z,98659.65
2023-01-18T22:27:54.495Z,98674.06
2023-01-18T22:30:22.733Z,98678.52
2023-01-18T22:32:50.445Z,98681.81
2023-01-18T22:35:18.704Z,98678.59
2023-01-18T22:37:46.387Z,98676.38
2023-01-18T22:40:14.128Z,98673.29
2023-01-18T22:42:41.808Z,98670.91
2023-01-18T22:45:09.930Z,98667.16
2023-01-18T22:47:37.596Z,98669.39
2023-01-18T22:50:05.835Z,98675.20
2023-01-18T22:52:33.494Z,98672.79
2023-01-18T22:55:01.387Z,98668.70
2023-01-18T22:57:29.115Z,98662.89
2023-01-18T22:59:56.746Z,98662.54
2023-01-18T23:02:24.365Z,98659.63
2023-01-18T23:04:52.108Z,98667.16
2023-01-18T23:07:19.774Z,98677.45
2023-01-18T23:09:47.413Z,98685.50
2023-01-18T23:12:15.128Z,98690.45
2023-01-18T23:14:58.766Z,98700.05
2023-01-18T23:17:42.384Z,98708.11
2023-01-18T23:20:14.796Z,98717.02
2023-01-18T23:22:42.541Z,98721.48
2023-01-18T23:25:10.269Z,98724.89
2023-01-18T23:27:37.997Z,98732.60
2023-01-18T23:30:06.266Z,98739.79
2023-01-18T23:32:35.305Z,98744.91
2023-01-18T23:35:04.331Z,98744.73
2023-01-18T23:37:31.978Z,98747.09
2023-01-18T23:40:15.605Z,98753.41
2023-01-18T23:42:59.539Z,98764.01
2023-01-18T23:45:42.447Z,98782.16
2023-01-18T23:48:32.142Z,98795.16
2023-01-18T23:51:16.359Z,98796.66
2023-01-18T23:54:00.829Z,98792.84
2023-01-18T23:56:28.840Z,98789.05
2023-01-18T23:58:56.877Z,98788.36
